sensor_id;sensor_type;location;lat;lon;timestamp;pressure;altitude;pressure_sealevel;temperature;humidity
19447;BME280;9862;49.462;11.054;2023-01-09T00:00:29;96510.59;;;8.44;100.00
19447;BME280;9862;49.462;11.054;2023-01-09T00:02:57;96513.91;;;8.39;100.00
19447;BME280;9862;49.462;11.054;2023-01-09T00:05:23;96499.97;;;8.32;100.00
19447;BME280;9862;49.462;11.054;2023-01-09T00:07:50;96498.13;;;8.44;100.00
19447;BME280;9862;49.462;11.054;2023-01-09T00:10:17;96506.66;;;8.46;100.00
19447;BME280;9862;49.462;11.054;2023-01-09T00:12:43;96501.34;;;8.46;100.00
19447;BME280;9862;49.462;11.054;2023-01-09T00:15:10;96489.63;;;8.42;100.00
19447;BME280;9862;49.462;11.054;2023-01-09T00:17:37;96489.63;;;8.42;100.00
19447;BME280;9862;49.462;11.054;2023-01-09T00:20:07;96476.25;;;8.37;100.00
19447;BME280;9862;49.462;11.054;2023-01-09T00:22:35;96476.34;;;8.42;100.00
19447;BME280;9862;49.462;11.054;2023-01-09T00:25:03;96478.44;;;8.40;100.00
19447;BME280;9862;49.462;11.054;2023-01-09T00:27:30;96471.16;;;8.47;100.00
19447;BME280;9862;49.462;11.054;2023-01-09T00:29:57;96472.75;;;8.48;100.00
19447;BME280;9862;49.462;11.054;2023-01-09T00:32:24;96478.19;;;8.53;100.00
19447;BME280;9862;49.462;11.054;2023-01-09T00:34:50;96466.66;;;8.48;100.00
19447;BME280;9862;49.462;11.054;2023-01-09T00:37:18;96472.75;;;8.48;100.00
19447;BME280;9862;49.462;11.054;2023-01-09T00:39:45;96467.34;;;8.55;100.00
19447;BME280;9862;49.462;11.054;2023-01-09T00:42:16;96460.66;;;8.52;100.00
19447;BME280;9862;49.462;11.054;2023-01-09T00:44:47;96455.00;;;8.60;100.00
19447;BME280;9862;49.462;11.054;2023-01-09T00:47:22;96460.75;;;8.57;100.00
19447;BME280;9862;49.462;11.054;2023-01-09T00:49:50;96452.72;;;8.52;100.00
19447;BME280;9862;49.462;11.054;2023-01-09T00:52:20;96446.25;;;8.48;100.00
19447;BME280;9862;49.462;11.054;2023-01-09T00:54:48;96447.28;;;8.47;100.00
19447;BME280;9862;49.462;11.054;2023-01-09T00:57:15;96432.63;;;8.56;100.00
19447;BME280;9862;49.462;11.054;2023-01-09T00:59:42;96441.31;;;8.52;100.00
19447;BME280;9862;49.462;11.054;2023-01-09T01:02:09;96439.53;;;8.57;100.00
19447;BME280;9862;49.462;11.054;2023-01-09T01:04:36;96437.84;;;8.51;100.00
19447;BME280;9862;49.462;11.054;2023-01-09T01:07:21;96445.00;;;8.51;100.00
19447;BME280;9862;49.462;11.054;2023-01-09T01:10:09;96436.13;;;8.45;100.00
19447;BME280;9862;49.462;11.054;2023-01-09T01:12:36;96440.50;;;8.51;100.00
19447;BME280;9862;49.462;11.054;2023-01-09T01:15:04;96433.00;;;8.48;100.00
19447;BME280;9862;49.462;11.054;2023-01-09T01:17:33;96433.72;;;8.44;100.00
19447;BME280;9862;49.462;11.054;2023-01-09T01:19:59;96433.38;;;8.40;100.00
19447;BME280;9862;49.462;11.054;2023-01-09T01:22:27;96433.94;;;8.42;100.00
19447;BME280;9862;49.462;11.054;2023-01-09T01:24:54;96436.25;;;8.27;100.00
19447;BME280;9862;49.462;11.054;2023-01-09T01:27:20;96429.44;;;8.19;100.00
19447;BME280;9862;49.462;11.054;2023-01-09T01:29:47;96440.75;;;8.15;100.00
19447;BME280;9862;49.462;11.054;2023-01-09T01:32:14;96437.97;;;8.33;100.00
19447;BME280;9862;49.462;11.054;2023-01-09T01:34:40;96446.59;;;8.28;100.00
19447;BME280;9862;49.462;11.054;2023-01-09T01:37:07;96446.50;;;8.23;100.00
19447;BME280;9862;49.462;11.054;2023-01-09T01:39:35;96444.44;;;8.37;100.00
19447;BME280;9862;49.462;11.054;2023-01-09T01:42:02;96446.16;;;8.31;100.00
19447;BME280;9862;49.462;11.054;2023-01-09T01:44:58;96438.44;;;8.30;100.00
19447;BME280;9862;49.462;11.054;2023-01-09T01:47:30;96431.50;;;8.29;100.00
19447;BME280;9862;49.462;11.054;2023-01-09T01:49:59;96422.53;;;8.30;100.00
19447;BME280;9862;49.462;11.054;2023-01-09T01:52:29;96426.81;;;8.31;100.00
19447;BME280;9862;49.462;11.054;2023-01-09T01:54:58;96420.81;;;8.36;100.00
19447;BME280;9862;49.462;11.054;2023-01-09T01:57:25;96419.28;;;8.28;100.00
19447;BME280;9862;49.462;11.054;2023-01-09T01:59:55;96421.16;;;8.39;100.00
19447;BME280;9862;49.462;11.054;2023-01-09T02:02:26;96412.28;;;8.22;100.00
19447;BME280;9862;49.462;11.054;2023-01-09T02:04:54;96403.75;;;8.20;100.00
19447;BME280;9862;49.462;11.054;2023-01-09T02:07:22;96382.56;;;8.20;100.00
19447;BME280;9862;49.462;11.054;2023-01-09T02:09:48;96394.88;;;8.26;100.00
19447;BME280;9862;49.462;11.054;2023-01-09T02:12:18;96405.59;;;8.19;100.00
19447;BME280;9862;49.462;11.054;2023-01-09T02:14:49;96408.03;;;8.21;100.00
19447;BME280;9862;49.462;11.054;2023-01-09T02:17:28;96397.53;;;8.26;100.00
19447;BME280;9862;49.462;11.054;2023-01-09T02:26:34;96391.53;;;8.30;100.00
19447;BME280;9862;49.462;11.054;2023-01-09T02:32:39;96377.72;;;8.40;100.00
19447;BME280;9862;49.462;11.054;2023-01-09T02:35:18;96369.84;;;8.45;100.00
19447;BME280;9862;49.462;11.054;2023-01-09T02:37:57;96361.91;;;8.45;100.00
19447;BME280;9862;49.462;11.054;2023-01-09T02:40:29;96356.59;;;8.45;100.00
19447;BME280;9862;49.462;11.054;2023-01-09T02:42:59;96348.28;;;8.53;100.00
19447;BME280;9862;49.462;11.054;2023-01-09T02:45:27;96349.81;;;8.38;100.00
19447;BME280;9862;49.462;11.054;2023-01-09T02:47:55;96340.50;;;8.35;100.00
19447;BME280;9862;49.462;11.054;2023-01-09T02:50:23;96341.41;;;8.29;100.00
19447;BME280;9862;49.462;11.054;2023-01-09T02:53:06;96335.41;;;8.33;100.00
19447;BME280;9862;49.462;11.054;2023-01-09T02:55:50;96337.97;;;8.40;100.00
19447;BME280;9862;49.462;11.054;2023-01-09T02:58:30;96334.50;;;8.40;100.00
19447;BME280;9862;49.462;11.054;2023-01-09T03:01:11;96343.72;;;8.37;100.00
19447;BME280;9862;49.462;11.054;2023-01-09T03:03:46;96344.38;;;8.44;100.00
19447;BME280;9862;49.462;11.054;2023-01-09T03:06:19;96335.31;;;8.40;100.00
19447;BME280;9862;49.462;11.054;2023-01-09T03:08:51;96335.53;;;8.39;100.00
19447;BME280;9862;49.462;11.054;2023-01-09T03:11:20;96335.31;;;8.40;100.00
19447;BME280;9862;49.462;11.054;2023-01-09T03:13:49;96337.78;;;8.47;100.00
19447;BME280;9862;49.462;11.054;2023-01-09T03:16:20;96336.44;;;8.44;100.00
19447;BME280;9862;49.462;11.054;2023-01-09T03:18:50;96335.72;;;8.49;100.00
19447;BME280;9862;49.462;11.054;2023-01-09T03:21:20;96327.72;;;8.60;100.00
19447;BME280;9862;49.462;11.054;2023-01-09T03:23:51;96333.88;;;8.49;100.00
19447;BME280;9862;49.462;11.054;2023-01-09T03:26:18;96333.91;;;8.38;100.00
19447;BME280;9862;49.462;11.054;2023-01-09T03:28:45;96336.56;;;8.38;100.00
19447;BME280;9862;49.462;11.054;2023-01-09T03:31:12;96325.16;;;8.37;100.00
19447;BME280;9862;49.462;11.054;2023-01-09T03:33:39;96331.50;;;8.36;100.00
19447;BME280;9862;49.462;11.054;2023-01-09T03:36:08;96342.56;;;8.33;100.00
19447;BME280;9862;49.462;11.054;2023-01-09T03:38:35;96338.97;;;8.39;100.00
19447;BME280;9862;49.462;11.054;2023-01-09T03:41:02;96338.03;;;8.45;100.00
19447;BME280;9862;49.462;11.054;2023-01-09T03:43:29;96352.22;;;8.51;100.00
19447;BME280;9862;49.462;11.054;2023-01-09T03:45:57;96349.56;;;8.51;100.00
19447;BME280;9862;49.462;11.054;2023-01-09T03:48:23;96359.19;;;8.57;100.00
19447;BME280;9862;49.462;11.054;2023-01-09T03:50:51;96363.31;;;8.65;100.00
19447;BME280;9862;49.462;11.054;2023-01-09T03:53:21;96361.72;;;8.64;100.00
19447;BME280;9862;49.462;11.054;2023-01-09T03:55:50;96365.09;;;8.76;100.00
19447;BME280;9862;49.462;11.054;2023-01-09T03:58:20;96368.72;;;8.70;100.00
19447;BME280;9862;49.462;11.054;2023-01-09T04:00:48;96370.78;;;8.68;100.00
19447;BME280;9862;49.462;11.054;2023-01-09T04:03:16;96370.91;;;8.73;100.00
19447;BME280;9862;49.462;11.054;2023-01-09T04:05:43;96365.03;;;8.71;100.00
19447;BME280;9862;49.462;11.054;2023-01-09T04:08:10;96373.44;;;8.68;100.00
19447;BME280;9862;49.462;11.054;2023-01-09T04:10:38;96374.03;;;8.70;100.00
19447;BME280;9862;49.462;11.054;2023-01-09T04:13:05;96370.97;;;8.61;100.00
19447;BME280;9862;49.462;11.054;2023-01-09T04:15:31;96377.72;;;8.69;100.00
19447;BME280;9862;49.462;11.054;2023-01-09T04:17:58;96372.22;;;8.58;100.00
19447;BME280;9862;49.462;11.054;2023-01-09T04:20:24;96385.81;;;8.62;100.00
19447;BME280;9862;49.462;11.054;2023-01-09T04:22:51;96380.75;;;8.60;100.00
19447;BME280;9862;49.462;11.054;2023-01-09T04:25:18;96383.25;;;8.67;100.00
19447;BME280;9862;49.462;11.054;2023-01-09T04:27:48;96385.56;;;8.64;100.00
19447;BME280;9862;49.462;11.054;2023-01-09T04:30:14;96384.97;;;8.73;100.00
19447;BME280;9862;49.462;11.054;2023-01-09T04:32:41;96383.50;;;8.66;100.00
19447;BME280;9862;49.462;11.054;2023-01-09T04:35:08;96383.28;;;8.55;100.00
19447;BME280;9862;49.462;11.054;2023-01-09T04:37:35;96386.50;;;8.57;100.00
19447;BME280;9862;49.462;11.054;2023-01-09T04:40:02;96395.19;;;8.53;100.00
19447;BME280;9862;49.462;11.054;2023-01-09T04:42:32;96401.78;;;8.50;100.00
19447;BME280;9862;49.462;11.054;2023-01-09T04:45:00;96396.59;;;8.44;100.00
19447;BME280;9862;49.462;11.054;2023-01-09T04:47:27;96415.59;;;8.52;100.00
19447;BME280;9862;49.462;11.054;2023-01-09T04:49:55;96412.41;;;8.79;100.00
19447;BME280;9862;49.462;11.054;2023-01-09T04:52:22;96414.63;;;8.58;100.00
19447;BME280;9862;49.462;11.054;2023-01-09T04:54:48;96413.63;;;8.59;100.00
19447;BME280;9862;49.462;11.054;2023-01-09T04:57:15;96413.03;;;8.57;100.00
19447;BME280;9862;49.462;11.054;2023-01-09T04:59:41;96419.50;;;8.62;100.00
19447;BME280;9862;49.462;11.054;2023-01-09T05:02:09;96421.78;;;8.70;100.00
19447;BME280;9862;49.462;11.054;2023-01-09T05:04:36;96429.19;;;8.56;100.00
19447;BME280;9862;49.462;11.054;2023-01-09T05:07:03;96411.34;;;8.51;100.00
19447;BME280;9862;49.462;11.054;2023-01-09T05:09:29;96413.50;;;8.54;100.00
19447;BME280;9862;49.462;11.054;2023-01-09T05:11:56;96421.78;;;8.58;100.00
19447;BME280;9862;49.462;11.054;2023-01-09T05:14:22;96427.44;;;8.62;100.00
19447;BME280;9862;49.462;11.054;2023-01-09T05:16:49;96427.19;;;8.63;100.00
19447;BME280;9862;49.462;11.054;2023-01-09T05:19:17;96439.41;;;8.64;100.00
19447;BME280;9862;49.462;11.054;2023-01-09T05:21:43;96436.53;;;8.66;100.00
19447;BME280;9862;49.462;11.054;2023-01-09T05:24:10;96441.59;;;8.67;100.00
19447;BME280;9862;49.462;11.054;2023-01-09T05:26:37;96448.31;;;8.86;100.00
19447;BME280;9862;49.462;11.054;2023-01-09T05:29:03;96459.53;;;8.77;100.00
19447;BME280;9862;49.462;11.054;2023-01-09T05:31:30;96467.34;;;8.55;100.00
19447;BME280;9862;49.462;11.054;2023-01-09T05:33:57;96464.72;;;8.43;100.00
19447;BME280;9862;49.462;11.054;2023-01-09T05:36:26;96462.75;;;8.39;100.00
19447;BME280;9862;49.462;11.054;2023-01-09T05:38:53;96464.00;;;8.48;100.00
19447;BME280;9862;49.462;11.054;2023-01-09T05:41:22;96471.63;;;8.44;100.00
19447;BME280;9862;49.462;11.054;2023-01-09T05:43:49;96483.38;;;8.48;100.00
19447;BME280;9862;49.462;11.054;2023-01-09T05:46:16;96478.22;;;8.42;100.00
19447;BME280;9862;49.462;11.054;2023-01-09T05:48:43;96479.66;;;8.61;100.00
19447;BME280;9862;49.462;11.054;2023-01-09T05:51:09;96484.06;;;8.55;100.00
19447;BME280;9862;49.462;11.054;2023-01-09T05:53:37;96493.94;;;8.72;100.00
19447;BME280;9862;49.462;11.054;2023-01-09T05:56:05;96503.50;;;8.73;100.00
19447;BME280;9862;49.462;11.054;2023-01-09T05:58:31;96501.34;;;8.70;100.00
19447;BME280;9862;49.462;11.054;2023-01-09T06:00:58;96503.84;;;8.76;100.00
19447;BME280;9862;49.462;11.054;2023-01-09T06:03:24;96508.81;;;8.73;100.00
19447;BME280;9862;49.462;11.054;2023-01-09T06:05:51;96510.78;;;8.66;100.00
19447;BME280;9862;49.462;11.054;2023-01-09T06:08:17;96521.88;;;8.51;100.00
19447;BME280;9862;49.462;11.054;2023-01-09T06:10:45;96512.19;;;8.45;100.00
19447;BME280;9862;49.462;11.054;2023-01-09T06:13:12;96521.66;;;8.52;100.00
19447;BME280;9862;49.462;11.054;2023-01-09T06:15:39;96524.75;;;8.26;100.00
19447;BME280;9862;49.462;11.054;2023-01-09T06:18:05;96520.00;;;8.16;100.00
19447;BME280;9862;49.462;11.054;2023-01-09T06:20:32;96516.09;;;8.07;100.00
19447;BME280;9862;49.462;11.054;2023-01-09T06:22:59;96526.44;;;8.09;100.00
19447;BME280;9862;49.462;11.054;2023-01-09T06:25:25;96536.25;;;8.08;100.00
19447;BME280;9862;49.462;11.054;2023-01-09T06:27:53;96536.72;;;8.05;100.00
19447;BME280;9862;49.462;11.054;2023-01-09T06:30:20;96546.59;;;8.10;100.00
19447;BME280;9862;49.462;11.054;2023-01-09T06:32:48;96549.81;;;8.00;100.00
19447;BME280;9862;49.462;11.054;2023-01-09T06:35:15;96554.31;;;7.99;100.00
19447;BME280;9862;49.462;11.054;2023-01-09T06:37:45;96561.78;;;7.91;100.00
19447;BME280;9862;49.462;11.054;2023-01-09T06:40:12;96563.97;;;7.82;100.00
19447;BME280;9862;49.462;11.054;2023-01-09T06:42:42;96577.66;;;7.79;100.00
19447;BME280;9862;49.462;11.054;2023-01-09T06:45:11;96570.75;;;7.78;100.00
19447;BME280;9862;49.462;11.054;2023-01-09T06:47:38;96573.41;;;7.78;100.00
19447;BME280;9862;49.462;11.054;2023-01-09T06:50:06;96584.31;;;7.70;100.00
19447;BME280;9862;49.462;11.054;2023-01-09T06:52:33;96584.78;;;7.67;100.00
19447;BME280;9862;49.462;11.054;2023-01-09T06:55:00;96592.63;;;7.73;100.00
19447;BME280;9862;49.462;11.054;2023-01-09T06:57:26;96602.41;;;7.73;100.00
19447;BME280;9862;49.462;11.054;2023-01-09T06:59:53;96596.97;;;7.68;100.00
19447;BME280;9862;49.462;11.054;2023-01-09T07:02:21;96610.16;;;7.56;100.00
19447;BME280;9862;49.462;11.054;2023-01-09T07:04:48;96614.50;;;7.51;100.00
19447;BME280;9862;49.462;11.054;2023-01-09T07:07:14;96617.53;;;7.54;100.00
19447;BME280;9862;49.462;11.054;2023-01-09T07:09:42;96625.31;;;7.49;100.00
19447;BME280;9862;49.462;11.054;2023-01-09T07:12:09;96624.16;;;7.45;100.00
19447;BME280;9862;49.462;11.054;2023-01-09T07:14:37;96626.81;;;7.75;100.00
19447;BME280;9862;49.462;11.054;2023-01-09T07:17:03;96629.22;;;8.07;100.00
19447;BME280;9862;49.462;11.054;2023-01-09T07:19:31;96635.53;;;8.06;100.00
19447;BME280;9862;49.462;11.054;2023-01-09T07:21:58;96637.78;;;7.90;100.00
19447;BME280;9862;49.462;11.054;2023-01-09T07:24:24;96637.69;;;7.85;100.00
19447;BME280;9862;49.462;11.054;2023-01-09T07:26:51;96634.06;;;7.80;100.00
19447;BME280;9862;49.462;11.054;2023-01-09T07:29:17;96628.25;;;7.59;100.00
19447;BME280;9862;49.462;11.054;2023-01-09T07:31:44;96635.72;;;7.62;100.00
19447;BME280;9862;49.462;11.054;2023-01-09T07:34:12;96638.56;;;7.49;100.00
19447;BME280;9862;49.462;11.054;2023-01-09T07:36:39;96636.88;;;7.55;100.00
19447;BME280;9862;49.462;11.054;2023-01-09T07:39:08;96634.44;;;7.53;100.00
19447;BME280;9862;49.462;11.054;2023-01-09T07:41:35;96647.03;;;7.39;100.00
19447;BME280;9862;49.462;11.054;2023-01-09T07:44:02;96655.13;;;7.44;100.00
19447;BME280;9862;49.462;11.054;2023-01-09T07:46:30;96658.94;;;7.49;100.00
19447;BME280;9862;49.462;11.054;2023-01-09T07:48:56;96667.16;;;7.59;100.00
19447;BME280;9862;49.462;11.054;2023-01-09T07:51:23;96678.09;;;7.62;100.00
19447;BME280;9862;49.462;11.054;2023-01-09T07:53:51;96689.72;;;7.61;100.00
19447;BME280;9862;49.462;11.054;2023-01-09T07:56:18;96699.16;;;7.57;100.00
19447;BME280;9862;49.462;11.054;2023-01-09T07:58:44;96694.66;;;7.58;100.00
19447;BME280;9862;49.462;11.054;2023-01-09T08:01:11;96691.84;;;7.53;100.00
19447;BME280;9862;49.462;11.054;2023-01-09T08:03:38;96695.25;;;7.41;100.00
19447;BME280;9862;49.462;11.054;2023-01-09T08:06:05;96691.78;;;7.41;100.00
19447;BME280;9862;49.462;11.054;2023-01-09T08:08:32;96690.34;;;7.45;100.00
19447;BME280;9862;49.462;11.054;2023-01-09T08:11:00;96688.19;;;7.54;100.00
19447;BME280;9862;49.462;11.054;2023-01-09T08:13:27;96706.56;;;7.49;100.00
19447;BME280;9862;49.462;11.054;2023-01-09T08:15:53;96701.28;;;7.49;100.00
19447;BME280;9862;49.462;11.054;2023-01-09T08:18:20;96704.50;;;7.51;100.00
19447;BME280;9862;49.462;11.054;2023-01-09T08:20:47;96713.03;;;7.53;100.00
19447;BME280;9862;49.462;11.054;2023-01-09T08:23:13;96710.25;;;7.47;100.00
19447;BME280;9862;49.462;11.054;2023-01-09T08:25:40;96715.78;;;7.46;100.00
19447;BME280;9862;49.462;11.054;2023-01-09T08:28:08;96717.22;;;7.42;100.00
19447;BME280;9862;49.462;11.054;2023-01-09T08:30:35;96734.44;;;7.33;100.00
19447;BME280;9862;49.462;11.054;2023-01-09T08:33:01;96731.41;;;7.29;100.00
19447;BME280;9862;49.462;11.054;2023-01-09T08:35:28;96730.69;;;7.40;100.00
19447;BME280;9862;49.462;11.054;2023-01-09T08:37:55;96733.41;;;7.52;100.00
19447;BME280;9862;49.462;11.054;2023-01-09T08:40:22;96735.41;;;7.57;100.00
19447;BME280;9862;49.462;11.054;2023-01-09T08:42:48;96734.31;;;7.46;100.00
19447;BME280;9862;49.462;11.054;2023-01-09T08:45:34;96741.56;;;7.32;100.00
19447;BME280;9862;49.462;11.054;2023-01-09T08:48:18;96753.06;;;7.44;100.00
19447;BME280;9862;49.462;11.054;2023-01-09T08:50:45;96747.16;;;7.61;100.00
19447;BME280;9862;49.462;11.054;2023-01-09T08:53:11;96764.22;;;7.65;100.00
19447;BME280;9862;49.462;11.054;2023-01-09T08:55:39;96774.81;;;7.65;100.00
19447;BME280;9862;49.462;11.054;2023-01-09T08:58:06;96767.16;;;7.75;100.00
19447;BME280;9862;49.462;11.054;2023-01-09T09:00:34;96775.69;;;7.59;100.00
19447;BME280;9862;49.462;11.054;2023-01-09T09:03:01;96769.59;;;7.58;100.00
19447;BME280;9862;49.462;11.054;2023-01-09T09:05:29;96769.38;;;7.60;100.00
19447;BME280;9862;49.462;11.054;2023-01-09T09:07:57;96760.25;;;7.56;100.00
19447;BME280;9862;49.462;11.054;2023-01-09T09:10:25;96767.16;;;7.57;100.00
19447;BME280;9862;49.462;11.054;2023-01-09T09:12:54;96768.34;;;7.61;100.00
19447;BME280;9862;49.462;11.054;2023-01-09T09:15:22;96776.44;;;7.66;100.00
19447;BME280;9862;49.462;11.054;2023-01-09T09:17:51;96776.16;;;7.56;100.00
19447;BME280;9862;49.462;11.054;2023-01-09T09:20:19;96783.91;;;7.51;100.00
19447;BME280;9862;49.462;11.054;2023-01-09T09:22:47;96788.28;;;7.63;100.00
19447;BME280;9862;49.462;11.054;2023-01-09T09:25:14;96792.38;;;7.59;100.00
19447;BME280;9862;49.462;11.054;2023-01-09T09:27:41;96784.16;;;7.67;100.00
19447;BME280;9862;49.462;11.054;2023-01-09T09:30:09;96791.88;;;7.69;100.00
19447;BME280;9862;49.462;11.054;2023-01-09T09:32:38;96780.19;;;7.58;100.00
19447;BME280;9862;49.462;11.054;2023-01-09T09:35:06;96793.34;;;7.46;100.00
19447;BME280;9862;49.462;11.054;2023-01-09T09:37:33;96789.22;;;7.51;100.00
19447;BME280;9862;49.462;11.054;2023-01-09T09:40:00;96792.84;;;7.56;100.00
19447;BME280;9862;49.462;11.054;2023-01-09T09:42:41;96788.88;;;7.65;100.00
19447;BME280;9862;49.462;11.054;2023-01-09T09:45:37;96789.38;;;7.74;100.00
19447;BME280;9862;49.462;11.054;2023-01-09T09:48:19;96800.09;;;7.79;100.00
19447;BME280;9862;49.462;11.054;2023-01-09T09:51:10;96799.38;;;7.72;100.00
19447;BME280;9862;49.462;11.054;2023-01-09T09:53:42;96798.50;;;7.60;100.00
19447;BME280;9862;49.462;11.054;2023-01-09T09:56:11;96791.13;;;7.62;100.00
19447;BME280;9862;49.462;11.054;2023-01-09T09:58:41;96799.75;;;7.57;100.00
19447;BME280;9862;49.462;11.054;2023-01-09T10:01:13;96800.84;;;7.50;100.00
19447;BME280;9862;49.462;11.054;2023-01-09T10:03:43;96812.09;;;7.45;100.00
19447;BME280;9862;49.462;11.054;2023-01-09T10:06:16;96804.38;;;7.43;100.00
19447;BME280;9862;49.462;11.054;2023-01-09T10:08:50;96815.28;;;7.54;100.00
19447;BME280;9862;49.462;11.054;2023-01-09T10:11:24;96798.13;;;7.56;100.00
19447;BME280;9862;49.462;11.054;2023-01-09T10:13:52;96806.50;;;7.71;100.00
19447;BME280;9862;49.462;11.054;2023-01-09T10:16:40;96809.81;;;7.67;100.00
19447;BME280;9862;49.462;11.054;2023-01-09T10:19:22;96812.69;;;7.65;100.00
19447;BME280;9862;49.462;11.054;2023-01-09T10:21:59;96810.63;;;7.67;100.00
19447;BME280;9862;49.462;11.054;2023-01-09T10:24:45;96812.59;;;7.72;100.00
19447;BME280;9862;49.462;11.054;2023-01-09T10:27:27;96805.19;;;7.81;100.00
19447;BME280;9862;49.462;11.054;2023-01-09T10:30:17;96813.22;;;7.92;100.00
19447;BME280;9862;49.462;11.054;2023-01-09T10:32:57;96820.84;;;8.00;100.00
19447;BME280;9862;49.462;11.054;2023-01-09T10:35:41;96811.59;;;7.91;100.00
19447;BME280;9862;49.462;11.054;2023-01-09T10:38:12;96799.38;;;7.90;100.00
19447;BME280;9862;49.462;11.054;2023-01-09T10:40:45;96796.66;;;7.97;100.00
19447;BME280;9862;49.462;11.054;2023-01-09T10:43:22;96802.63;;;7.92;100.00
19447;BME280;9862;49.462;11.054;2023-01-09T10:45:52;96795.41;;;7.81;100.00
19447;BME280;9862;49.462;11.054;2023-01-09T10:48:24;96793.19;;;7.78;100.00
19447;BME280;9862;49.462;11.054;2023-01-09T10:50:54;96789.16;;;7.94;100.00
19447;BME280;9862;49.462;11.054;2023-01-09T10:53:26;96792.38;;;7.96;100.00
19447;BME280;9862;49.462;11.054;2023-01-09T10:55:58;96779.19;;;8.08;100.00
19447;BME280;9862;49.462;11.054;2023-01-09T10:58:26;96797.47;;;7.97;100.00
19447;BME280;9862;49.462;11.054;2023-01-09T11:00:53;96794.97;;;8.02;100.00
19447;BME280;9862;49.462;11.054;2023-01-09T11:03:21;96795.66;;;8.10;100.00
19447;BME280;9862;49.462;11.054;2023-01-09T11:05:52;96793.47;;;8.07;100.00
19447;BME280;9862;49.462;11.054;2023-01-09T11:08:24;96805.44;;;8.27;100.00
19447;BME280;9862;49.462;11.054;2023-01-09T11:10:53;96795.63;;;8.28;100.00
19447;BME280;9862;49.462;11.054;2023-01-09T11:13:22;96802.00;;;8.09;100.00
19447;BME280;9862;49.462;11.054;2023-01-09T11:16:01;96799.97;;;8.11;100.00
19447;BME280;9862;49.462;11.054;2023-01-09T11:18:30;96801.34;;;8.13;100.00
19447;BME280;9862;49.462;11.054;2023-01-09T11:21:11;96810.69;;;8.16;100.00
19447;BME280;9862;49.462;11.054;2023-01-09T11:23:40;96809.94;;;8.09;100.00
19447;BME280;9862;49.462;11.054;2023-01-09T11:26:21;96813.41;;;8.09;100.00
19447;BME280;9862;49.462;11.054;2023-01-09T11:29:03;96802.72;;;8.16;100.00
19447;BME280;9862;49.462;11.054;2023-01-09T11:31:30;96803.41;;;8.11;100.00
19447;BME280;9862;49.462;11.054;2023-01-09T11:33:57;96792.72;;;8.18;100.00
19447;BME280;9862;49.462;11.054;2023-01-09T11:36:24;96787.66;;;8.16;100.00
19447;BME280;9862;49.462;11.054;2023-01-09T11:38:54;96791.25;;;8.22;100.00
19447;BME280;9862;49.462;11.054;2023-01-09T11:41:23;96790.72;;;8.31;100.00
19447;BME280;9862;49.462;11.054;2023-01-09T11:43:52;96786.81;;;8.34;100.00
19447;BME280;9862;49.462;11.054;2023-01-09T11:46:35;96792.25;;;8.39;100.00
19447;BME280;9862;49.462;11.054;2023-01-09T11:49:05;96790.63;;;8.38;100.00
19447;BME280;9862;49.462;11.054;2023-01-09T11:51:45;96785.03;;;8.28;100.00
19447;BME280;9862;49.462;11.054;2023-01-09T11:54:17;96789.50;;;8.16;100.00
19447;BME280;9862;49.462;11.054;2023-01-09T11:56:47;96789.84;;;8.19;100.00
19447;BME280;9862;49.462;11.054;2023-01-09T11:59:17;96785.69;;;8.12;100.00
19447;BME280;9862;49.462;11.054;2023-01-09T12:01:55;96782.25;;;8.23;100.00
19447;BME280;9862;49.462;11.054;2023-01-09T12:04:25;96779.72;;;8.28;100.00
19447;BME280;9862;49.462;11.054;2023-01-09T12:10:05;96771.78;;;8.28;100.00
19447;BME280;9862;49.462;11.054;2023-01-09T12:12:41;96778.00;;;8.40;100.00
19447;BME280;9862;49.462;11.054;2023-01-09T12:15:22;96772.09;;;8.38;100.00
19447;BME280;9862;49.462;11.054;2023-01-09T12:18:01;96779.84;;;8.40;100.00
19447;BME280;9862;49.462;11.054;2023-01-09T12:20:44;96778.81;;;8.41;100.00
19447;BME280;9862;49.462;11.054;2023-01-09T12:23:22;96783.31;;;8.22;100.00
19447;BME280;9862;49.462;11.054;2023-01-09T12:25:58;96790.53;;;8.15;100.00
19447;BME280;9862;49.462;11.054;2023-01-09T12:28:43;96797.31;;;8.11;100.00
19447;BME280;9862;49.462;11.054;2023-01-09T12:31:23;96802.91;;;8.02;100.00
19447;BME280;9862;49.462;11.054;2023-01-09T12:34:01;96813.22;;;8.11;100.00
19447;BME280;9862;49.462;11.054;2023-01-09T12:36:35;96807.72;;;8.24;100.00
19447;BME280;9862;49.462;11.054;2023-01-09T12:39:15;96808.66;;;8.29;100.00
19447;BME280;9862;49.462;11.054;2023-01-09T12:42:07;96805.66;;;8.44;100.00
19447;BME280;9862;49.462;11.054;2023-01-09T12:44:55;96810.50;;;8.47;100.00
19447;BME280;9862;49.462;11.054;2023-01-09T12:47:37;96811.31;;;8.48;100.00
19447;BME280;9862;49.462;11.054;2023-01-09T12:50:18;96820.22;;;8.53;100.00
19447;BME280;9862;49.462;11.054;2023-01-09T12:52:58;96821.81;;;8.54;100.00
19447;BME280;9862;49.462;11.054;2023-01-09T12:55:32;96817.69;;;8.58;100.00
19447;BME280;9862;49.462;11.054;2023-01-09T12:58:06;96813.09;;;8.66;100.00
19447;BME280;9862;49.462;11.054;2023-01-09T13:00:37;96815.63;;;8.60;100.00
19447;BME280;9862;49.462;11.054;2023-01-09T13:03:12;96818.88;;;8.63;100.00
19447;BME280;9862;49.462;11.054;2023-01-09T13:05:43;96814.59;;;8.62;100.00
19447;BME280;9862;49.462;11.054;2023-01-09T13:08:14;96806.22;;;8.46;100.00
19447;BME280;9862;49.462;11.054;2023-01-09T13:10:47;96815.00;;;8.47;100.00
19447;BME280;9862;49.462;11.054;2023-01-09T13:13:19;96822.03;;;8.41;100.00
19447;BME280;9862;49.462;11.054;2023-01-09T13:15:49;96818.75;;;8.39;100.00
19447;BME280;9862;49.462;11.054;2023-01-09T13:18:21;96821.78;;;8.43;100.00
19447;BME280;9862;49.462;11.054;2023-01-09T13:20:52;96813.84;;;8.43;100.00
19447;BME280;9862;49.462;11.054;2023-01-09T13:23:29;96812.91;;;8.49;100.00
19447;BME280;9862;49.462;11.054;2023-01-09T13:26:00;96818.88;;;8.63;100.00
19447;BME280;9862;49.462;11.054;2023-01-09T13:28:33;96816.94;;;8.70;100.00